Historical Weather Data

Soule Park Golf Course
1033 East Ojai Ave
Ojai, CA 93023
Date ET
(Inches)
Rain
(Inches)
Temp °F
Humidity
Avg
Wind MPH
Avg
Solar Wm2
Avg
High Ave Low
2/1/17 32.0 32.0 32.0 0.0
2/2/17 32.0 32.0 32.0 0.0
2/3/17 32.0 32.0 32.0 0.0
2/4/17 32.0 32.0 32.0 0.0
2/5/17 32.0 32.0 32.0 0.0
2/6/17 32.0 32.0 32.0 0.0
2/7/17 0.03 0.04 64.4 59.4 56.9 94 1.0 93
2/8/17 0.07 0.01 69.0 60.6 55.3 92 1.0 122
2/9/17 0.09 0.00 76.6 60.5 50.7 85 1.5 159
2/10/17 0.02 0.44 60.0 56.3 53.2 97 0.9 30
2/11/17 0.10 0.05 65.6 56.2 48.3 84 2.1 184
2/12/17 0.12 0.00 73.5 56.1 44.0 64 2.6 206
2/13/17 0.11 0.00 76.9 57.2 40.6 62 2.3 180
2/14/17 0.12 0.00 73.2 57.6 44.9 71 2.6 206
2/15/17 0.13 0.00 81.2 58.2 42.7 56 2.5 205
2/16/17 0.06 0.12 66.9 54.2 41.6 74 2.1 101
2/17/17 0.01 5.30 56.8 52.8 49.7 92 4.9 5
2/18/17 0.07 0.10 62.3 52.6 45.5 89 2.0 140
2/19/17 0.06 0.22 62.1 51.5 44.4 89 1.6 112
2/20/17 0.04 0.28 58.7 53.6 50.2 97 0.5 66
2/21/17 0.03 0.11 59.3 54.9 50.8 96 0.1 59
2/22/17 0.12 0.01 65.8 51.4 39.5 71 2.2 230
2/23/17 0.12 0.00 62.2 45.4 33.4 58 2.6 233
2/24/17 0.11 0.00 62.1 44.8 30.1 62 2.6 229
2/25/17 0.08 0.00 59.1 44.7 31.0 76 2.5 161
2/26/17 0.06 0.18 58.1 47.8 41.4 85 2.1 116
2/27/17 0.06 0.00 57.8 49.3 39.2 81 2.1 98
2/28/17 0.12 0.00 62.2 47.9 34.4 69 2.8 235